sensor_id;sensor_type;location;lat;lon;timestamp;P1;durP1;ratioP1;P2;durP2;ratioP2
39918;SDS011;25589;51.552;13.424;2023-12-20T00:00:37;4.55;;;3.78;;
39918;SDS011;25589;51.552;13.424;2023-12-20T00:03:03;5.47;;;4.53;;
39918;SDS011;25589;51.552;13.424;2023-12-20T00:05:29;5.47;;;4.18;;
39918;SDS011;25589;51.552;13.424;2023-12-20T00:07:57;5.82;;;4.35;;
39918;SDS011;25589;51.552;13.424;2023-12-20T00:10:22;5.88;;;3.65;;
39918;SDS011;25589;51.552;13.424;2023-12-20T00:12:48;5.88;;;4.22;;
39918;SDS011;25589;51.552;13.424;2023-12-20T00:15:14;5.13;;;3.90;;
39918;SDS011;25589;51.552;13.424;2023-12-20T00:17:40;4.13;;;3.72;;
39918;SDS011;25589;51.552;13.424;2023-12-20T00:20:06;5.40;;;4.20;;
39918;SDS011;25589;51.552;13.424;2023-12-20T00:22:33;6.05;;;4.15;;
39918;SDS011;25589;51.552;13.424;2023-12-20T00:24:59;4.50;;;3.60;;
39918;SDS011;25589;51.552;13.424;2023-12-20T00:27:24;4.38;;;3.83;;
39918;SDS011;25589;51.552;13.424;2023-12-20T00:29:50;3.63;;;3.22;;
39918;SDS011;25589;51.552;13.424;2023-12-20T00:32:15;4.75;;;4.10;;
39918;SDS011;25589;51.552;13.424;2023-12-20T00:34:42;4.85;;;3.70;;
39918;SDS011;25589;51.552;13.424;2023-12-20T00:37:08;5.43;;;4.20;;
39918;SDS011;25589;51.552;13.424;2023-12-20T00:39:33;3.70;;;3.33;;
39918;SDS011;25589;51.552;13.424;2023-12-20T00:41:59;5.28;;;3.92;;
39918;SDS011;25589;51.552;13.424;2023-12-20T00:44:25;4.88;;;3.72;;
39918;SDS011;25589;51.552;13.424;2023-12-20T00:46:51;4.40;;;4.00;;
39918;SDS011;25589;51.552;13.424;2023-12-20T00:49:16;4.35;;;3.80;;
39918;SDS011;25589;51.552;13.424;2023-12-20T00:51:42;4.45;;;3.92;;
39918;SDS011;25589;51.552;13.424;2023-12-20T00:54:08;4.10;;;3.70;;
39918;SDS011;25589;51.552;13.424;2023-12-20T00:56:34;4.72;;;3.92;;
39918;SDS011;25589;51.552;13.424;2023-12-20T00:59:00;5.60;;;3.90;;
39918;SDS011;25589;51.552;13.424;2023-12-20T01:01:25;4.72;;;3.58;;
39918;SDS011;25589;51.552;13.424;2023-12-20T01:03:51;4.90;;;3.70;;
39918;SDS011;25589;51.552;13.424;2023-12-20T01:06:17;5.28;;;4.05;;
39918;SDS011;25589;51.552;13.424;2023-12-20T01:08:43;7.13;;;4.13;;
39918;SDS011;25589;51.552;13.424;2023-12-20T01:11:08;5.05;;;4.15;;
39918;SDS011;25589;51.552;13.424;2023-12-20T01:13:34;5.43;;;3.90;;
39918;SDS011;25589;51.552;13.424;2023-12-20T01:16:00;4.85;;;3.90;;
39918;SDS011;25589;51.552;13.424;2023-12-20T01:18:26;4.57;;;3.85;;
39918;SDS011;25589;51.552;13.424;2023-12-20T01:20:51;4.90;;;4.13;;
39918;SDS011;25589;51.552;13.424;2023-12-20T01:23:17;5.80;;;4.20;;
39918;SDS011;25589;51.552;13.424;2023-12-20T01:25:43;4.90;;;4.22;;
39918;SDS011;25589;51.552;13.424;2023-12-20T01:28:09;5.70;;;4.28;;
39918;SDS011;25589;51.552;13.424;2023-12-20T01:30:34;4.53;;;4.03;;
39918;SDS011;25589;51.552;13.424;2023-12-20T01:33:00;4.95;;;4.28;;
39918;SDS011;25589;51.552;13.424;2023-12-20T01:35:26;5.38;;;4.43;;
39918;SDS011;25589;51.552;13.424;2023-12-20T01:37:52;5.63;;;3.95;;
39918;SDS011;25589;51.552;13.424;2023-12-20T01:40:21;4.60;;;3.72;;
39918;SDS011;25589;51.552;13.424;2023-12-20T01:42:47;5.03;;;4.00;;
39918;SDS011;25589;51.552;13.424;2023-12-20T01:45:13;5.07;;;3.88;;
39918;SDS011;25589;51.552;13.424;2023-12-20T01:47:39;3.53;;;3.00;;
39918;SDS011;25589;51.552;13.424;2023-12-20T01:50:05;4.20;;;3.30;;
39918;SDS011;25589;51.552;13.424;2023-12-20T01:52:33;3.75;;;3.45;;
39918;SDS011;25589;51.552;13.424;2023-12-20T01:54:59;4.05;;;3.47;;
39918;SDS011;25589;51.552;13.424;2023-12-20T01:57:28;3.90;;;3.50;;
39918;SDS011;25589;51.552;13.424;2023-12-20T01:59:53;4.22;;;3.40;;
39918;SDS011;25589;51.552;13.424;2023-12-20T02:02:19;3.92;;;3.35;;
39918;SDS011;25589;51.552;13.424;2023-12-20T02:04:45;5.47;;;3.85;;
39918;SDS011;25589;51.552;13.424;2023-12-20T02:07:11;5.32;;;3.42;;
39918;SDS011;25589;51.552;13.424;2023-12-20T02:09:36;3.70;;;3.10;;
39918;SDS011;25589;51.552;13.424;2023-12-20T02:12:03;4.13;;;3.42;;
39918;SDS011;25589;51.552;13.424;2023-12-20T02:14:29;4.00;;;3.38;;
39918;SDS011;25589;51.552;13.424;2023-12-20T02:16:55;4.82;;;3.47;;
39918;SDS011;25589;51.552;13.424;2023-12-20T02:19:20;3.42;;;3.10;;
39918;SDS011;25589;51.552;13.424;2023-12-20T02:21:46;6.65;;;3.45;;
39918;SDS011;25589;51.552;13.424;2023-12-20T02:24:12;3.78;;;2.88;;
39918;SDS011;25589;51.552;13.424;2023-12-20T02:26:37;5.15;;;3.60;;
39918;SDS011;25589;51.552;13.424;2023-12-20T02:29:03;4.45;;;3.90;;
39918;SDS011;25589;51.552;13.424;2023-12-20T02:31:29;4.50;;;3.38;;
39918;SDS011;25589;51.552;13.424;2023-12-20T02:33:55;5.28;;;3.60;;
39918;SDS011;25589;51.552;13.424;2023-12-20T02:36:20;3.40;;;3.10;;
39918;SDS011;25589;51.552;13.424;2023-12-20T02:38:46;4.00;;;3.20;;
39918;SDS011;25589;51.552;13.424;2023-12-20T02:41:12;4.10;;;3.25;;
39918;SDS011;25589;51.552;13.424;2023-12-20T02:43:37;3.17;;;2.88;;
39918;SDS011;25589;51.552;13.424;2023-12-20T02:46:03;3.45;;;3.15;;
39918;SDS011;25589;51.552;13.424;2023-12-20T02:48:28;5.65;;;3.00;;
39918;SDS011;25589;51.552;13.424;2023-12-20T02:50:54;3.45;;;3.15;;
39918;SDS011;25589;51.552;13.424;2023-12-20T02:53:20;3.80;;;3.08;;
39918;SDS011;25589;51.552;13.424;2023-12-20T02:55:45;3.20;;;2.90;;
39918;SDS011;25589;51.552;13.424;2023-12-20T02:58:11;3.33;;;2.92;;
39918;SDS011;25589;51.552;13.424;2023-12-20T03:00:36;4.25;;;3.13;;
39918;SDS011;25589;51.552;13.424;2023-12-20T03:03:02;4.55;;;3.25;;
39918;SDS011;25589;51.552;13.424;2023-12-20T03:05:28;4.15;;;3.17;;
39918;SDS011;25589;51.552;13.424;2023-12-20T03:07:54;4.20;;;3.05;;
39918;SDS011;25589;51.552;13.424;2023-12-20T03:10:19;3.75;;;2.88;;
39918;SDS011;25589;51.552;13.424;2023-12-20T03:12:45;4.20;;;2.88;;
39918;SDS011;25589;51.552;13.424;2023-12-20T03:15:10;3.92;;;3.17;;
39918;SDS011;25589;51.552;13.424;2023-12-20T03:17:36;3.95;;;3.30;;
39918;SDS011;25589;51.552;13.424;2023-12-20T03:20:02;3.38;;;3.08;;
39918;SDS011;25589;51.552;13.424;2023-12-20T03:22:27;3.30;;;3.00;;
39918;SDS011;25589;51.552;13.424;2023-12-20T03:24:53;3.25;;;2.85;;
39918;SDS011;25589;51.552;13.424;2023-12-20T03:27:18;2.95;;;2.63;;
39918;SDS011;25589;51.552;13.424;2023-12-20T03:29:44;3.55;;;3.22;;
39918;SDS011;25589;51.552;13.424;2023-12-20T03:32:09;3.40;;;2.50;;
39918;SDS011;25589;51.552;13.424;2023-12-20T03:34:35;2.90;;;2.60;;
39918;SDS011;25589;51.552;13.424;2023-12-20T03:37:01;3.60;;;2.80;;
39918;SDS011;25589;51.552;13.424;2023-12-20T03:39:26;2.97;;;2.67;;
39918;SDS011;25589;51.552;13.424;2023-12-20T03:41:52;3.60;;;3.10;;
39918;SDS011;25589;51.552;13.424;2023-12-20T03:44:17;3.08;;;2.78;;
39918;SDS011;25589;51.552;13.424;2023-12-20T03:46:43;2.90;;;2.70;;
39918;SDS011;25589;51.552;13.424;2023-12-20T03:49:10;2.85;;;2.65;;
39918;SDS011;25589;51.552;13.424;2023-12-20T03:51:36;3.70;;;2.60;;
39918;SDS011;25589;51.552;13.424;2023-12-20T03:54:02;2.67;;;2.47;;
39918;SDS011;25589;51.552;13.424;2023-12-20T03:56:28;2.63;;;2.42;;
39918;SDS011;25589;51.552;13.424;2023-12-20T03:58:53;3.10;;;2.80;;
39918;SDS011;25589;51.552;13.424;2023-12-20T04:01:19;3.08;;;2.78;;
39918;SDS011;25589;51.552;13.424;2023-12-20T04:03:44;2.83;;;2.58;;
39918;SDS011;25589;51.552;13.424;2023-12-20T04:06:10;3.28;;;2.60;;
39918;SDS011;25589;51.552;13.424;2023-12-20T04:08:41;2.88;;;2.58;;
39918;SDS011;25589;51.552;13.424;2023-12-20T04:11:06;2.63;;;2.38;;
39918;SDS011;25589;51.552;13.424;2023-12-20T04:13:32;3.42;;;3.00;;
39918;SDS011;25589;51.552;13.424;2023-12-20T04:15:57;3.53;;;3.22;;
39918;SDS011;25589;51.552;13.424;2023-12-20T04:18:23;2.97;;;2.63;;
39918;SDS011;25589;51.552;13.424;2023-12-20T04:20:48;3.97;;;2.90;;
39918;SDS011;25589;51.552;13.424;2023-12-20T04:23:14;2.97;;;2.67;;
39918;SDS011;25589;51.552;13.424;2023-12-20T04:25:40;3.03;;;2.72;;
39918;SDS011;25589;51.552;13.424;2023-12-20T04:28:06;3.35;;;3.05;;
39918;SDS011;25589;51.552;13.424;2023-12-20T04:30:31;3.05;;;2.75;;
39918;SDS011;25589;51.552;13.424;2023-12-20T04:32:57;3.08;;;2.78;;
39918;SDS011;25589;51.552;13.424;2023-12-20T04:35:22;2.90;;;2.60;;
39918;SDS011;25589;51.552;13.424;2023-12-20T04:37:48;3.88;;;3.00;;
39918;SDS011;25589;51.552;13.424;2023-12-20T04:40:14;3.17;;;2.83;;
39918;SDS011;25589;51.552;13.424;2023-12-20T04:42:40;3.00;;;2.80;;
39918;SDS011;25589;51.552;13.424;2023-12-20T04:45:05;3.58;;;3.22;;
39918;SDS011;25589;51.552;13.424;2023-12-20T04:47:32;3.00;;;2.38;;
39918;SDS011;25589;51.552;13.424;2023-12-20T04:49:57;3.38;;;3.08;;
39918;SDS011;25589;51.552;13.424;2023-12-20T04:52:23;3.15;;;2.60;;
39918;SDS011;25589;51.552;13.424;2023-12-20T04:54:48;4.20;;;3.13;;
39918;SDS011;25589;51.552;13.424;2023-12-20T04:57:14;4.15;;;3.42;;
39918;SDS011;25589;51.552;13.424;2023-12-20T04:59:39;3.35;;;2.90;;
39918;SDS011;25589;51.552;13.424;2023-12-20T05:02:06;2.50;;;2.30;;
39918;SDS011;25589;51.552;13.424;2023-12-20T05:04:31;2.67;;;2.47;;
39918;SDS011;25589;51.552;13.424;2023-12-20T05:06:57;3.25;;;2.60;;
39918;SDS011;25589;51.552;13.424;2023-12-20T05:09:23;2.97;;;2.20;;
39918;SDS011;25589;51.552;13.424;2023-12-20T05:11:48;3.72;;;2.30;;
39918;SDS011;25589;51.552;13.424;2023-12-20T05:14:14;4.00;;;2.67;;
39918;SDS011;25589;51.552;13.424;2023-12-20T05:16:40;2.42;;;2.22;;
39918;SDS011;25589;51.552;13.424;2023-12-20T05:19:05;3.78;;;2.33;;
39918;SDS011;25589;51.552;13.424;2023-12-20T05:21:31;1.92;;;1.83;;
39918;SDS011;25589;51.552;13.424;2023-12-20T05:23:58;2.70;;;2.08;;
39918;SDS011;25589;51.552;13.424;2023-12-20T05:26:23;3.00;;;2.35;;
39918;SDS011;25589;51.552;13.424;2023-12-20T05:28:49;2.90;;;2.47;;
39918;SDS011;25589;51.552;13.424;2023-12-20T05:31:15;2.67;;;2.30;;
39918;SDS011;25589;51.552;13.424;2023-12-20T05:33:40;3.22;;;2.30;;
39918;SDS011;25589;51.552;13.424;2023-12-20T05:36:06;4.20;;;3.03;;
39918;SDS011;25589;51.552;13.424;2023-12-20T05:38:36;3.28;;;2.97;;
39918;SDS011;25589;51.552;13.424;2023-12-20T05:41:02;3.72;;;2.92;;
39918;SDS011;25589;51.552;13.424;2023-12-20T05:43:27;3.53;;;2.97;;
39918;SDS011;25589;51.552;13.424;2023-12-20T05:45:53;5.40;;;3.53;;
39918;SDS011;25589;51.552;13.424;2023-12-20T05:48:18;4.03;;;2.78;;
39918;SDS011;25589;51.552;13.424;2023-12-20T05:50:44;3.30;;;2.97;;
39918;SDS011;25589;51.552;13.424;2023-12-20T05:53:10;5.28;;;3.65;;
39918;SDS011;25589;51.552;13.424;2023-12-20T05:55:35;8.32;;;3.65;;
39918;SDS011;25589;51.552;13.424;2023-12-20T05:58:01;4.53;;;3.67;;
39918;SDS011;25589;51.552;13.424;2023-12-20T06:00:26;4.97;;;3.30;;
39918;SDS011;25589;51.552;13.424;2023-12-20T06:02:52;5.78;;;3.85;;
39918;SDS011;25589;51.552;13.424;2023-12-20T06:05:18;5.28;;;3.63;;
39918;SDS011;25589;51.552;13.424;2023-12-20T06:07:45;4.90;;;4.07;;
39918;SDS011;25589;51.552;13.424;2023-12-20T06:10:13;4.65;;;3.90;;
39918;SDS011;25589;51.552;13.424;2023-12-20T06:12:38;7.63;;;4.40;;
39918;SDS011;25589;51.552;13.424;2023-12-20T06:15:04;6.40;;;3.90;;
39918;SDS011;25589;51.552;13.424;2023-12-20T06:17:31;8.48;;;4.55;;
39918;SDS011;25589;51.552;13.424;2023-12-20T06:19:57;5.97;;;4.50;;
39918;SDS011;25589;51.552;13.424;2023-12-20T06:22:22;7.15;;;4.65;;
39918;SDS011;25589;51.552;13.424;2023-12-20T06:24:48;6.63;;;4.93;;
39918;SDS011;25589;51.552;13.424;2023-12-20T06:27:14;6.80;;;4.53;;
39918;SDS011;25589;51.552;13.424;2023-12-20T06:29:39;6.00;;;4.57;;
39918;SDS011;25589;51.552;13.424;2023-12-20T06:32:06;6.72;;;4.35;;
39918;SDS011;25589;51.552;13.424;2023-12-20T06:34:31;9.68;;;5.20;;
39918;SDS011;25589;51.552;13.424;2023-12-20T06:36:57;6.50;;;4.93;;
39918;SDS011;25589;51.552;13.424;2023-12-20T06:39:23;6.75;;;5.35;;
39918;SDS011;25589;51.552;13.424;2023-12-20T06:41:48;6.80;;;4.97;;
39918;SDS011;25589;51.552;13.424;2023-12-20T06:44:14;7.10;;;5.13;;
39918;SDS011;25589;51.552;13.424;2023-12-20T06:46:40;7.53;;;4.82;;
39918;SDS011;25589;51.552;13.424;2023-12-20T06:49:05;7.28;;;5.68;;
39918;SDS011;25589;51.552;13.424;2023-12-20T06:51:31;8.23;;;4.90;;
39918;SDS011;25589;51.552;13.424;2023-12-20T06:53:56;8.10;;;5.68;;
39918;SDS011;25589;51.552;13.424;2023-12-20T06:56:22;7.15;;;5.40;;
39918;SDS011;25589;51.552;13.424;2023-12-20T06:58:48;5.22;;;4.35;;
39918;SDS011;25589;51.552;13.424;2023-12-20T07:01:14;7.35;;;4.47;;
39918;SDS011;25589;51.552;13.424;2023-12-20T07:03:40;7.07;;;4.40;;
39918;SDS011;25589;51.552;13.424;2023-12-20T07:06:06;7.10;;;4.63;;
39918;SDS011;25589;51.552;13.424;2023-12-20T07:08:32;6.28;;;3.88;;
39918;SDS011;25589;51.552;13.424;2023-12-20T07:10:58;7.03;;;4.47;;
39918;SDS011;25589;51.552;13.424;2023-12-20T07:13:23;6.68;;;4.40;;
39918;SDS011;25589;51.552;13.424;2023-12-20T07:15:49;6.75;;;3.90;;
39918;SDS011;25589;51.552;13.424;2023-12-20T07:18:15;6.00;;;3.92;;
39918;SDS011;25589;51.552;13.424;2023-12-20T07:20:41;6.07;;;4.00;;
39918;SDS011;25589;51.552;13.424;2023-12-20T07:23:08;6.30;;;3.85;;
39918;SDS011;25589;51.552;13.424;2023-12-20T07:25:33;5.63;;;3.33;;
39918;SDS011;25589;51.552;13.424;2023-12-20T07:27:59;5.25;;;3.38;;
39918;SDS011;25589;51.552;13.424;2023-12-20T07:30:25;4.47;;;3.05;;
39918;SDS011;25589;51.552;13.424;2023-12-20T07:32:50;5.97;;;3.00;;
39918;SDS011;25589;51.552;13.424;2023-12-20T07:35:17;6.65;;;2.88;;
39918;SDS011;25589;51.552;13.424;2023-12-20T07:37:43;5.80;;;2.83;;
39918;SDS011;25589;51.552;13.424;2023-12-20T07:40:09;6.90;;;2.60;;
39918;SDS011;25589;51.552;13.424;2023-12-20T07:42:35;4.68;;;2.38;;
39918;SDS011;25589;51.552;13.424;2023-12-20T07:45:01;2.92;;;2.30;;
39918;SDS011;25589;51.552;13.424;2023-12-20T07:47:26;4.75;;;2.28;;
39918;SDS011;25589;51.552;13.424;2023-12-20T07:49:52;5.55;;;2.30;;
39918;SDS011;25589;51.552;13.424;2023-12-20T07:52:18;6.85;;;2.00;;
39918;SDS011;25589;51.552;13.424;2023-12-20T07:54:44;4.00;;;2.78;;
39918;SDS011;25589;51.552;13.424;2023-12-20T07:57:10;6.22;;;2.58;;
39918;SDS011;25589;51.552;13.424;2023-12-20T07:59:37;5.78;;;2.72;;
39918;SDS011;25589;51.552;13.424;2023-12-20T08:02:02;2.42;;;1.85;;
39918;SDS011;25589;51.552;13.424;2023-12-20T08:04:28;5.18;;;2.35;;
39918;SDS011;25589;51.552;13.424;2023-12-20T08:06:54;5.57;;;2.42;;
39918;SDS011;25589;51.552;13.424;2023-12-20T08:09:20;5.05;;;2.65;;
39918;SDS011;25589;51.552;13.424;2023-12-20T08:11:46;6.15;;;2.65;;
39918;SDS011;25589;51.552;13.424;2023-12-20T08:14:12;3.97;;;2.78;;
39918;SDS011;25589;51.552;13.424;2023-12-20T08:16:38;4.60;;;2.78;;
39918;SDS011;25589;51.552;13.424;2023-12-20T08:19:04;7.93;;;3.63;;
39918;SDS011;25589;51.552;13.424;2023-12-20T08:21:29;4.78;;;3.47;;
39918;SDS011;25589;51.552;13.424;2023-12-20T08:23:55;3.63;;;3.33;;
39918;SDS011;25589;51.552;13.424;2023-12-20T08:26:21;3.80;;;3.13;;
39918;SDS011;25589;51.552;13.424;2023-12-20T08:28:48;4.13;;;3.30;;
39918;SDS011;25589;51.552;13.424;2023-12-20T08:31:14;7.53;;;3.33;;
39918;SDS011;25589;51.552;13.424;2023-12-20T08:33:41;4.68;;;3.63;;
39918;SDS011;25589;51.552;13.424;2023-12-20T08:36:09;3.30;;;3.00;;
39918;SDS011;25589;51.552;13.424;2023-12-20T08:38:34;4.28;;;3.05;;
39918;SDS011;25589;51.552;13.424;2023-12-20T08:41:00;3.10;;;2.80;;
39918;SDS011;25589;51.552;13.424;2023-12-20T08:43:26;3.92;;;2.35;;
39918;SDS011;25589;51.552;13.424;2023-12-20T08:45:52;3.00;;;2.42;;
39918;SDS011;25589;51.552;13.424;2023-12-20T08:48:18;3.67;;;2.25;;
39918;SDS011;25589;51.552;13.424;2023-12-20T08:50:43;3.55;;;2.13;;
39918;SDS011;25589;51.552;13.424;2023-12-20T08:53:09;2.40;;;1.88;;
39918;SDS011;25589;51.552;13.424;2023-12-20T08:55:34;4.45;;;2.33;;
39918;SDS011;25589;51.552;13.424;2023-12-20T08:58:00;3.30;;;2.00;;
39918;SDS011;25589;51.552;13.424;2023-12-20T09:00:25;3.53;;;1.80;;
39918;SDS011;25589;51.552;13.424;2023-12-20T09:02:53;3.67;;;1.85;;
39918;SDS011;25589;51.552;13.424;2023-12-20T09:05:19;1.73;;;1.63;;
39918;SDS011;25589;51.552;13.424;2023-12-20T09:07:45;3.47;;;1.75;;
39918;SDS011;25589;51.552;13.424;2023-12-20T09:10:10;1.52;;;1.33;;
39918;SDS011;25589;51.552;13.424;2023-12-20T09:12:36;4.90;;;1.80;;
39918;SDS011;25589;51.552;13.424;2023-12-20T09:15:05;5.20;;;1.60;;
39918;SDS011;25589;51.552;13.424;2023-12-20T09:17:30;3.20;;;1.50;;
39918;SDS011;25589;51.552;13.424;2023-12-20T09:19:56;2.20;;;1.50;;
39918;SDS011;25589;51.552;13.424;2023-12-20T09:22:21;3.15;;;1.20;;
39918;SDS011;25589;51.552;13.424;2023-12-20T09:24:48;2.70;;;1.25;;
39918;SDS011;25589;51.552;13.424;2023-12-20T09:27:14;2.38;;;1.45;;
39918;SDS011;25589;51.552;13.424;2023-12-20T09:29:39;1.95;;;1.48;;
39918;SDS011;25589;51.552;13.424;2023-12-20T09:32:05;3.95;;;1.48;;
39918;SDS011;25589;51.552;13.424;2023-12-20T09:34:31;2.05;;;1.40;;
39918;SDS011;25589;51.552;13.424;2023-12-20T09:36:56;3.00;;;1.30;;
39918;SDS011;25589;51.552;13.424;2023-12-20T09:39:22;2.25;;;1.65;;
39918;SDS011;25589;51.552;13.424;2023-12-20T09:42:00;5.30;;;1.40;;
39918;SDS011;25589;51.552;13.424;2023-12-20T09:44:27;4.43;;;1.75;;
39918;SDS011;25589;51.552;13.424;2023-12-20T09:46:52;5.32;;;1.52;;
39918;SDS011;25589;51.552;13.424;2023-12-20T09:49:20;5.03;;;1.90;;
39918;SDS011;25589;51.552;13.424;2023-12-20T09:51:46;3.20;;;1.63;;
39918;SDS011;25589;51.552;13.424;2023-12-20T09:54:16;4.72;;;1.52;;
39918;SDS011;25589;51.552;13.424;2023-12-20T09:56:42;3.20;;;1.17;;
39918;SDS011;25589;51.552;13.424;2023-12-20T09:59:09;2.78;;;1.23;;
39918;SDS011;25589;51.552;13.424;2023-12-20T10:01:35;6.65;;;1.45;;
39918;SDS011;25589;51.552;13.424;2023-12-20T10:04:03;2.25;;;1.50;;
39918;SDS011;25589;51.552;13.424;2023-12-20T10:06:34;7.32;;;1.60;;
39918;SDS011;25589;51.552;13.424;2023-12-20T10:09:09;5.35;;;2.00;;
39918;SDS011;25589;51.552;13.424;2023-12-20T10:11:36;5.78;;;1.48;;
39918;SDS011;25589;51.552;13.424;2023-12-20T10:14:03;2.90;;;1.25;;
39918;SDS011;25589;51.552;13.424;2023-12-20T10:16:29;3.80;;;1.02;;
39918;SDS011;25589;51.552;13.424;2023-12-20T10:18:56;3.00;;;1.33;;
39918;SDS011;25589;51.552;13.424;2023-12-20T10:21:22;3.78;;;1.50;;
39918;SDS011;25589;51.552;13.424;2023-12-20T10:23:49;3.53;;;1.55;;
39918;SDS011;25589;51.552;13.424;2023-12-20T10:26:22;5.07;;;1.40;;
39918;SDS011;25589;51.552;13.424;2023-12-20T10:28:55;5.65;;;1.80;;
39918;SDS011;25589;51.552;13.424;2023-12-20T10:31:26;5.15;;;1.85;;
39918;SDS011;25589;51.552;13.424;2023-12-20T10:33:53;6.80;;;1.85;;
39918;SDS011;25589;51.552;13.424;2023-12-20T10:36:18;4.32;;;1.70;;
39918;SDS011;25589;51.552;13.424;2023-12-20T10:38:44;7.68;;;1.90;;
39918;SDS011;25589;51.552;13.424;2023-12-20T10:41:11;4.63;;;1.67;;
39918;SDS011;25589;51.552;13.424;2023-12-20T10:43:37;3.95;;;1.83;;
39918;SDS011;25589;51.552;13.424;2023-12-20T10:46:04;3.85;;;2.38;;
39918;SDS011;25589;51.552;13.424;2023-12-20T10:48:30;1.65;;;1.50;;
39918;SDS011;25589;51.552;13.424;2023-12-20T10:50:58;41.53;;;15.43;;
39918;SDS011;25589;51.552;13.424;2023-12-20T10:53:24;33.88;;;13.32;;
39918;SDS011;25589;51.552;13.424;2023-12-20T10:55:50;30.85;;;11.13;;
39918;SDS011;25589;51.552;13.424;2023-12-20T10:58:20;9.00;;;3.40;;
39918;SDS011;25589;51.552;13.424;2023-12-20T11:00:47;3.80;;;1.70;;
39918;SDS011;25589;51.552;13.424;2023-12-20T11:03:18;5.68;;;2.05;;
39918;SDS011;25589;51.552;13.424;2023-12-20T11:08:28;5.38;;;1.98;;
39918;SDS011;25589;51.552;13.424;2023-12-20T11:14:05;4.95;;;2.42;;
39918;SDS011;25589;51.552;13.424;2023-12-20T11:16:36;6.25;;;1.67;;
39918;SDS011;25589;51.552;13.424;2023-12-20T11:19:05;2.83;;;2.20;;
39918;SDS011;25589;51.552;13.424;2023-12-20T11:21:31;6.18;;;2.00;;
39918;SDS011;25589;51.552;13.424;2023-12-20T11:23:56;10.57;;;2.60;;
39918;SDS011;25589;51.552;13.424;2023-12-20T11:26:22;8.00;;;3.70;;
39918;SDS011;25589;51.552;13.424;2023-12-20T11:28:48;4.82;;;2.45;;
39918;SDS011;25589;51.552;13.424;2023-12-20T11:31:14;4.00;;;2.60;;
39918;SDS011;25589;51.552;13.424;2023-12-20T11:33:40;5.93;;;2.25;;
39918;SDS011;25589;51.552;13.424;2023-12-20T11:36:13;20.55;;;8.60;;
39918;SDS011;25589;51.552;13.424;2023-12-20T11:38:55;7.25;;;2.45;;
39918;SDS011;25589;51.552;13.424;2023-12-20T11:41:26;52.08;;;18.70;;
39918;SDS011;25589;51.552;13.424;2023-12-20T11:43:55;40.55;;;14.38;;
39918;SDS011;25589;51.552;13.424;2023-12-20T11:46:21;12.43;;;5.25;;
39918;SDS011;25589;51.552;13.424;2023-12-20T11:48:47;7.53;;;3.50;;
39918;SDS011;25589;51.552;13.424;2023-12-20T11:51:13;4.05;;;1.92;;
39918;SDS011;25589;51.552;13.424;2023-12-20T11:53:39;4.95;;;1.80;;
39918;SDS011;25589;51.552;13.424;2023-12-20T11:56:07;6.47;;;1.67;;
39918;SDS011;25589;51.552;13.424;2023-12-20T11:58:34;5.50;;;1.98;;
39918;SDS011;25589;51.552;13.424;2023-12-20T12:01:00;2.85;;;1.63;;
39918;SDS011;25589;51.552;13.424;2023-12-20T12:03:27;6.88;;;3.33;;
39918;SDS011;25589;51.552;13.424;2023-12-20T12:05:53;28.63;;;11.93;;
39918;SDS011;25589;51.552;13.424;2023-12-20T12:08:18;6.65;;;2.38;;
39918;SDS011;25589;51.552;13.424;2023-12-20T12:10:44;6.20;;;1.80;;
39918;SDS011;25589;51.552;13.424;2023-12-20T12:13:10;2.78;;;1.45;;
39918;SDS011;25589;51.552;13.424;2023-12-20T12:15:36;4.43;;;1.45;;
39918;SDS011;25589;51.552;13.424;2023-12-20T12:18:02;4.25;;;1.95;;
39918;SDS011;25589;51.552;13.424;2023-12-20T12:20:28;4.45;;;1.83;;
39918;SDS011;25589;51.552;13.424;2023-12-20T12:23:01;6.63;;;1.77;;
39918;SDS011;25589;51.552;13.424;2023-12-20T12:25:30;6.70;;;2.30;;
39918;SDS011;25589;51.552;13.424;2023-12-20T12:27:59;6.28;;;2.08;;
39918;SDS011;25589;51.552;13.424;2023-12-20T12:30:25;5.78;;;1.90;;
39918;SDS011;25589;51.552;13.424;2023-12-20T12:32:51;6.60;;;2.28;;
39918;SDS011;25589;51.552;13.424;2023-12-20T12:35:18;4.28;;;1.60;;
39918;SDS011;25589;51.552;13.424;2023-12-20T12:37:44;6.38;;;1.60;;
39918;SDS011;25589;51.552;13.424;2023-12-20T12:40:11;6.18;;;1.70;;
39918;SDS011;25589;51.552;13.424;2023-12-20T12:42:38;4.10;;;2.00;;
39918;SDS011;25589;51.552;13.424;2023-12-20T12:45:06;3.28;;;1.85;;
39918;SDS011;25589;51.552;13.424;2023-12-20T12:47:32;3.72;;;1.85;;
39918;SDS011;25589;51.552;13.424;2023-12-20T12:49:58;3.00;;;1.98;;
39918;SDS011;25589;51.552;13.424;2023-12-20T12:52:24;2.97;;;1.42;;
39918;SDS011;25589;51.552;13.424;2023-12-20T12:54:49;5.68;;;1.27;;
39918;SDS011;25589;51.552;13.424;2023-12-20T12:57:15;3.13;;;1.63;;
39918;SDS011;25589;51.552;13.424;2023-12-20T12:59:42;3.20;;;1.50;;
39918;SDS011;25589;51.552;13.424;2023-12-20T13:02:10;4.43;;;1.70;;
39918;SDS011;25589;51.552;13.424;2023-12-20T13:04:37;7.20;;;2.15;;
39918;SDS011;25589;51.552;13.424;2023-12-20T13:07:02;6.25;;;2.97;;
39918;SDS011;25589;51.552;13.424;2023-12-20T13:09:28;5.47;;;2.90;;
39918;SDS011;25589;51.552;13.424;2023-12-20T13:11:54;6.05;;;2.05;;
39918;SDS011;25589;51.552;13.424;2023-12-20T13:14:19;6.18;;;2.13;;
39918;SDS011;25589;51.552;13.424;2023-12-20T13:16:45;4.95;;;2.10;;
39918;SDS011;25589;51.552;13.424;2023-12-20T13:19:11;8.82;;;3.63;;
39918;SDS011;25589;51.552;13.424;2023-12-20T13:21:36;10.27;;;4.68;;
39918;SDS011;25589;51.552;13.424;2023-12-20T13:24:02;9.18;;;3.63;;
39918;SDS011;25589;51.552;13.424;2023-12-20T13:26:28;6.30;;;2.13;;
39918;SDS011;25589;51.552;13.424;2023-12-20T13:28:54;2.20;;;1.13;;
39918;SDS011;25589;51.552;13.424;2023-12-20T13:31:20;5.47;;;1.92;;
39918;SDS011;25589;51.552;13.424;2023-12-20T13:33:46;5.45;;;1.67;;
39918;SDS011;25589;51.552;13.424;2023-12-20T13:36:12;6.88;;;1.80;;
39918;SDS011;25589;51.552;13.424;2023-12-20T13:38:38;4.47;;;2.10;;
39918;SDS011;25589;51.552;13.424;2023-12-20T13:41:03;5.18;;;1.90;;
39918;SDS011;25589;51.552;13.424;2023-12-20T13:43:30;3.80;;;1.90;;
39918;SDS011;25589;51.552;13.424;2023-12-20T13:45:57;4.40;;;1.58;;
39918;SDS011;25589;51.552;13.424;2023-12-20T13:48:26;5.40;;;1.80;;
39918;SDS011;25589;51.552;13.424;2023-12-20T13:50:52;5.70;;;1.92;;
39918;SDS011;25589;51.552;13.424;2023-12-20T13:53:19;4.20;;;1.95;;
39918;SDS011;25589;51.552;13.424;2023-12-20T13:55:45;4.28;;;2.15;;
39918;SDS011;25589;51.552;13.424;2023-12-20T13:58:11;4.72;;;1.90;;
39918;SDS011;25589;51.552;13.424;2023-12-20T14:00:37;5.20;;;2.35;;
39918;SDS011;25589;51.552;13.424;2023-12-20T14:03:03;4.28;;;1.90;;
39918;SDS011;25589;51.552;13.424;2023-12-20T14:05:29;3.67;;;2.05;;
39918;SDS011;25589;51.552;13.424;2023-12-20T14:07:55;4.10;;;1.60;;
39918;SDS011;25589;51.552;13.424;2023-12-20T14:10:22;2.15;;;1.52;;
39918;SDS011;25589;51.552;13.424;2023-12-20T14:12:52;2.35;;;1.60;;
39918;SDS011;25589;51.552;13.424;2023-12-20T14:15:18;4.97;;;1.50;;
39918;SDS011;25589;51.552;13.424;2023-12-20T14:17:46;3.97;;;1.73;;
39918;SDS011;25589;51.552;13.424;2023-12-20T14:20:11;5.55;;;1.95;;
39918;SDS011;25589;51.552;13.424;2023-12-20T14:22:38;4.15;;;2.00;;
39918;SDS011;25589;51.552;13.424;2023-12-20T14:25:04;2.67;;;1.50;;
39918;SDS011;25589;51.552;13.424;2023-12-20T14:27:31;4.30;;;1.80;;
39918;SDS011;25589;51.552;13.424;2023-12-20T14:29:57;5.05;;;1.92;;
39918;SDS011;25589;51.552;13.424;2023-12-20T14:32:23;2.80;;;1.77;;